Time;durP1;ratioP1;P1;durP2;ratioP2;P2;SDS_P1;SDS_P2;PMS_P1;PMS_P2;Temp;Humidity;BMP_temperature;BMP_pressure;BME280_temperature;BME280_humidity;BME280_pressure;Samples;Min_cycle;Max_cycle;Signal;HPM_P1;HPM_P2
2022/05/02 00:01:04;;;;;;;12.83;8.77;;;;;;;;;;5033727;28;20212;-73
2022/05/02 00:03:33;;;;;;;12.97;7.90;;;;;;;;;;5032528;28;20203;-73
2022/05/02 00:06:01;;;;;;;12.63;8.60;;;;;;;;;;5025997;28;20195;-72
2022/05/02 00:08:33;;;;;;;13.70;8.73;;;;;;;;;;5032940;28;20232;-73
2022/05/02 00:11:01;;;;;;;11.43;8.13;;;;;;;;;;5032998;28;20204;-73
2022/05/02 00:13:30;;;;;;;11.53;8.10;;;;;;;;;;5032639;28;20211;-74
2022/05/02 00:15:59;;;;;;;12.17;8.20;;;;;;;;;;5027296;28;20203;-73
2022/05/02 00:18:28;;;;;;;15.43;9.10;;;;;;;;;;5033024;28;20227;-73
2022/05/02 00:20:56;;;;;;;9.00;7.93;;;;;;;;;;5032700;28;20203;-73
2022/05/02 00:23:25;;;;;;;10.10;8.13;;;;;;;;;;5031831;28;20200;-72
2022/05/02 00:25:53;;;;;;;10.23;8.80;;;;;;;;;;5048436;28;20229;-73
2022/05/02 00:28:22;;;;;;;9.73;8.83;;;;;;;;;;5051511;28;20219;-73
2022/05/02 00:30:50;;;;;;;9.17;8.20;;;;;;;;;;5026663;28;20280;-73
2022/05/02 00:33:20;;;;;;;11.50;8.03;;;;;;;;;;5031798;28;20612;-73
2022/05/02 00:35:49;;;;;;;8.60;7.83;;;;;;;;;;5032913;28;20674;-73
2022/05/02 00:38:17;;;;;;;9.90;8.60;;;;;;;;;;5032593;28;20227;-73
2022/05/02 00:40:46;;;;;;;9.40;8.43;;;;;;;;;;5033270;28;20265;-72
2022/05/02 00:43:14;;;;;;;10.97;9.07;;;;;;;;;;5032295;28;20215;-73
2022/05/02 00:45:42;;;;;;;10.23;9.23;;;;;;;;;;5032435;28;20204;-73
2022/05/02 00:48:11;;;;;;;10.07;9.10;;;;;;;;;;5032834;28;20231;-73
2022/05/02 00:50:47;;;;;;;9.70;8.73;;;;;;;;;;5026825;28;20646;-73
2022/05/02 00:53:16;;;;;;;10.87;9.77;;;;;;;;;;5042744;28;20655;-72
2022/05/02 00:55:45;;;;;;;10.57;9.33;;;;;;;;;;5035388;28;20211;-74
2022/05/02 00:58:14;;;;;;;9.80;8.90;;;;;;;;;;5033772;28;20574;-73
2022/05/02 01:00:43;;;;;;;12.10;9.70;;;;;;;;;;5033025;28;20281;-73
2022/05/02 01:03:13;;;;;;;9.90;9.00;;;;;;;;;;5032311;28;20204;-73
2022/05/02 01:08:27;;;;;;;9.67;8.87;;;;;;;;;;5034907;28;20312;-73
2022/05/02 01:10:56;;;;;;;9.50;8.57;;;;;;;;;;5036021;28;20273;-72
2022/05/02 01:13:38;;;;;;;9.07;8.23;;;;;;;;;;5035032;28;20655;-73
2022/05/02 01:16:10;;;;;;;8.73;7.93;;;;;;;;;;5035933;28;20207;-73
2022/05/02 01:18:39;;;;;;;8.67;7.77;;;;;;;;;;5035710;28;20220;-73
2022/05/02 01:21:10;;;;;;;8.73;7.77;;;;;;;;;;5035478;28;20199;-72
2022/05/02 01:23:39;;;;;;;8.73;7.83;;;;;;;;;;5034686;28;20251;-74
2022/05/02 01:26:07;;;;;;;8.43;7.60;;;;;;;;;;5032352;28;20208;-73
2022/05/02 01:28:41;;;;;;;8.87;7.97;;;;;;;;;;5035414;28;20748;-73
2022/05/02 01:31:10;;;;;;;8.97;8.03;;;;;;;;;;5035680;28;20214;-72
2022/05/02 01:33:38;;;;;;;9.17;8.20;;;;;;;;;;5034917;28;20682;-72
2022/05/02 01:36:07;;;;;;;10.73;7.80;;;;;;;;;;5035610;28;20732;-73
2022/05/02 01:38:37;;;;;;;9.00;7.23;;;;;;;;;;5035049;28;20849;-72
2022/05/02 01:41:05;;;;;;;8.80;8.00;;;;;;;;;;5035447;28;20650;-73
2022/05/02 01:43:34;;;;;;;8.67;7.60;;;;;;;;;;5032667;28;20616;-73
2022/05/02 01:46:03;;;;;;;9.43;7.87;;;;;;;;;;5035727;28;20214;-73
2022/05/02 01:48:31;;;;;;;9.53;8.30;;;;;;;;;;5035394;28;20224;-73
2022/05/02 01:51:00;;;;;;;9.47;8.47;;;;;;;;;;5036087;28;20206;-73
2022/05/02 01:53:28;;;;;;;8.77;7.97;;;;;;;;;;5034466;28;20660;-72
2022/05/02 01:55:58;;;;;;;10.63;8.50;;;;;;;;;;5035656;28;20211;-73
2022/05/02 01:58:27;;;;;;;9.40;8.47;;;;;;;;;;5035052;28;20218;-73
2022/05/02 02:00:55;;;;;;;8.70;7.87;;;;;;;;;;5035016;28;20254;-72
2022/05/02 02:03:24;;;;;;;9.50;8.50;;;;;;;;;;5033407;28;20203;-73
2022/05/02 02:05:52;;;;;;;9.57;7.87;;;;;;;;;;5034247;28;20628;-72
2022/05/02 02:08:21;;;;;;;9.07;8.00;;;;;;;;;;5034036;28;20234;-73
2022/05/02 02:10:50;;;;;;;8.50;7.70;;;;;;;;;;5032957;28;20210;-73
2022/05/02 02:13:19;;;;;;;8.87;7.97;;;;;;;;;;5033994;28;20217;-73
2022/05/02 02:15:48;;;;;;;10.50;8.73;;;;;;;;;;5034764;28;20246;-72
2022/05/02 02:18:16;;;;;;;9.50;8.50;;;;;;;;;;5033780;28;20271;-72
2022/05/02 02:20:46;;;;;;;9.87;8.87;;;;;;;;;;5034924;28;20221;-73
2022/05/02 02:23:14;;;;;;;9.53;8.50;;;;;;;;;;5034318;28;20604;-72
2022/05/02 02:25:43;;;;;;;10.07;8.87;;;;;;;;;;5034502;28;20264;-72
2022/05/02 02:28:13;;;;;;;11.50;8.80;;;;;;;;;;5033312;28;20225;-73
2022/05/02 02:30:44;;;;;;;11.07;9.20;;;;;;;;;;5033094;28;20222;-73
2022/05/02 02:33:11;;;;;;;10.07;8.87;;;;;;;;;;5033656;28;20218;-73
2022/05/02 02:35:39;;;;;;;11.53;9.83;;;;;;;;;;5031023;28;20215;-72
2022/05/02 02:38:09;;;;;;;15.33;10.60;;;;;;;;;;5033156;28;20287;-73
2022/05/02 02:40:37;;;;;;;12.57;9.40;;;;;;;;;;5035037;28;20207;-73
2022/05/02 02:43:06;;;;;;;13.33;8.93;;;;;;;;;;5033837;28;20258;-72
2022/05/02 02:45:34;;;;;;;10.23;8.97;;;;;;;;;;5034606;28;20240;-73
2022/05/02 02:48:04;;;;;;;10.57;8.70;;;;;;;;;;5034630;28;20315;-73
2022/05/02 02:50:33;;;;;;;10.33;9.33;;;;;;;;;;5034414;28;20206;-72
2022/05/02 02:53:01;;;;;;;10.57;9.23;;;;;;;;;;5033713;28;20214;-73
2022/05/02 02:55:29;;;;;;;12.07;9.57;;;;;;;;;;5034309;28;20209;-73
2022/05/02 02:57:58;;;;;;;12.43;8.80;;;;;;;;;;5035274;28;20623;-73
2022/05/02 03:00:26;;;;;;;9.60;8.60;;;;;;;;;;5036173;28;20201;-72
2022/05/02 03:02:55;;;;;;;10.70;8.93;;;;;;;;;;5032520;28;20709;-73
2022/05/02 03:08:11;;;;;;;11.53;8.37;;;;;;;;;;5033681;28;20228;-72
2022/05/02 03:10:42;;;;;;;11.80;8.63;;;;;;;;;;5026319;28;20214;-73
2022/05/02 03:13:13;;;;;;;14.03;9.03;;;;;;;;;;5033594;28;20201;-73
2022/05/02 03:15:42;;;;;;;15.57;10.07;;;;;;;;;;5033864;28;20217;-72
2022/05/02 03:18:11;;;;;;;11.20;8.97;;;;;;;;;;5033590;28;20279;-72
2022/05/02 03:20:41;;;;;;;12.60;9.97;;;;;;;;;;5033635;28;20207;-73
2022/05/02 03:23:09;;;;;;;11.27;8.83;;;;;;;;;;5033224;28;20204;-73
2022/05/02 03:25:40;;;;;;;12.17;9.30;;;;;;;;;;5025754;28;20215;-72
2022/05/02 03:28:08;;;;;;;9.73;8.53;;;;;;;;;;5033283;28;20230;-73
2022/05/02 03:30:37;;;;;;;10.20;8.57;;;;;;;;;;5033750;28;20237;-73
2022/05/02 03:33:05;;;;;;;12.93;9.13;;;;;;;;;;5032876;28;20207;-72
2022/05/02 03:35:33;;;;;;;11.67;8.27;;;;;;;;;;5032937;28;20204;-72
2022/05/02 03:38:03;;;;;;;10.40;9.00;;;;;;;;;;5032828;28;20278;-72
2022/05/02 03:40:32;;;;;;;10.63;8.60;;;;;;;;;;5033519;28;20210;-73
2022/05/02 03:43:00;;;;;;;10.70;8.47;;;;;;;;;;5033060;28;20208;-73
2022/05/02 03:45:29;;;;;;;11.17;9.00;;;;;;;;;;5033460;28;20656;-73
2022/05/02 03:47:59;;;;;;;13.37;9.17;;;;;;;;;;5032790;28;20225;-72
2022/05/02 03:50:27;;;;;;;10.73;8.60;;;;;;;;;;5033617;28;20567;-73
2022/05/02 03:52:56;;;;;;;9.73;8.43;;;;;;;;;;5032317;28;20212;-73
2022/05/02 03:55:25;;;;;;;11.73;8.53;;;;;;;;;;5033326;28;20206;-72
2022/05/02 03:57:54;;;;;;;10.53;8.93;;;;;;;;;;5033198;28;20227;-72
2022/05/02 04:00:22;;;;;;;11.10;9.30;;;;;;;;;;5035194;28;20234;-73
2022/05/02 04:02:52;;;;;;;9.33;8.20;;;;;;;;;;5024471;28;20661;-73
2022/05/02 04:05:21;;;;;;;10.27;9.20;;;;;;;;;;5033120;28;20212;-73
2022/05/02 04:07:50;;;;;;;9.63;8.63;;;;;;;;;;5017074;28;20224;-72
2022/05/02 04:10:18;;;;;;;13.57;9.20;;;;;;;;;;5032537;28;20220;-72
2022/05/02 04:12:48;;;;;;;10.00;9.00;;;;;;;;;;5032149;28;20212;-72
2022/05/02 04:15:17;;;;;;;11.17;9.97;;;;;;;;;;5032793;28;20208;-72
2022/05/02 04:17:46;;;;;;;10.57;9.10;;;;;;;;;;5032159;28;20227;-73
2022/05/02 04:20:14;;;;;;;11.93;8.63;;;;;;;;;;5023277;28;20643;-72
2022/05/02 04:22:43;;;;;;;12.40;8.90;;;;;;;;;;5030709;28;20721;-73
2022/05/02 04:25:11;;;;;;;11.20;9.57;;;;;;;;;;5032878;28;20204;-73
2022/05/02 04:27:39;;;;;;;15.17;9.53;;;;;;;;;;5031892;28;20232;-73
2022/05/02 04:30:10;;;;;;;11.07;9.77;;;;;;;;;;5022469;28;20225;-73
2022/05/02 04:32:39;;;;;;;15.80;10.67;;;;;;;;;;5025678;28;20579;-72
2022/05/02 04:35:10;;;;;;;12.93;10.63;;;;;;;;;;5033240;28;20204;-73
2022/05/02 04:37:38;;;;;;;13.40;10.50;;;;;;;;;;5031349;28;20220;-73
2022/05/02 04:40:07;;;;;;;14.43;11.70;;;;;;;;;;5027824;28;20214;-73
2022/05/02 04:42:36;;;;;;;14.40;12.00;;;;;;;;;;5028400;28;20203;-72
2022/05/02 04:45:05;;;;;;;15.10;12.20;;;;;;;;;;5028425;28;20225;-73
2022/05/02 04:47:35;;;;;;;13.90;11.50;;;;;;;;;;5029431;28;20236;-73
2022/05/02 04:50:04;;;;;;;14.23;11.37;;;;;;;;;;5029489;28;20312;-73
2022/05/02 04:52:33;;;;;;;12.50;11.30;;;;;;;;;;5034476;28;20209;-73
2022/05/02 04:55:01;;;;;;;13.23;11.27;;;;;;;;;;5034861;28;20206;-73
2022/05/02 04:57:30;;;;;;;12.20;10.90;;;;;;;;;;5032432;28;20652;-73
2022/05/02 04:59:59;;;;;;;14.60;11.10;;;;;;;;;;5035052;28;20730;-74
2022/05/02 05:02:27;;;;;;;14.90;11.70;;;;;;;;;;5036019;28;20208;-73
2022/05/02 05:04:57;;;;;;;14.07;12.57;;;;;;;;;;5034758;28;20209;-73
2022/05/02 05:07:25;;;;;;;13.37;10.50;;;;;;;;;;5031379;28;20644;-72
2022/05/02 05:09:54;;;;;;;13.10;10.67;;;;;;;;;;5034126;28;20259;-73
2022/05/02 05:12:30;;;;;;;13.13;11.33;;;;;;;;;;5033187;28;20258;-73
2022/05/02 05:18:03;;;;;;;16.30;12.17;;;;;;;;;;5032867;28;20223;-73
2022/05/02 05:20:36;;;;;;;13.50;12.20;;;;;;;;;;5025563;28;20226;-74
2022/05/02 05:23:12;;;;;;;14.07;12.23;;;;;;;;;;5024819;28;20204;-73
2022/05/02 05:25:42;;;;;;;13.97;11.97;;;;;;;;;;5031646;28;20207;-73
2022/05/02 05:28:30;;;;;;;14.37;11.73;;;;;;;;;;5034592;28;20318;-73
2022/05/02 05:31:03;;;;;;;16.30;11.80;;;;;;;;;;5034721;28;20257;-73
2022/05/02 05:33:40;;;;;;;14.83;11.73;;;;;;;;;;5035006;28;20221;-73
2022/05/02 05:36:17;;;;;;;13.10;11.10;;;;;;;;;;5033928;28;20204;-73
2022/05/02 05:38:51;;;;;;;11.87;10.67;;;;;;;;;;5034545;28;20245;-73
2022/05/02 05:41:30;;;;;;;13.07;10.90;;;;;;;;;;5035414;28;20211;-73
2022/05/02 05:44:07;;;;;;;11.67;10.47;;;;;;;;;;5030676;28;20199;-73
2022/05/02 05:46:50;;;;;;;11.53;10.33;;;;;;;;;;5034526;28;20204;-73
2022/05/02 05:49:25;;;;;;;13.73;10.00;;;;;;;;;;5024338;28;20235;-73
2022/05/02 05:52:01;;;;;;;12.13;10.27;;;;;;;;;;5034255;28;20215;-73
2022/05/02 05:54:40;;;;;;;12.07;9.87;;;;;;;;;;5035771;28;20230;-73
2022/05/02 05:57:15;;;;;;;10.87;9.17;;;;;;;;;;5034831;28;20340;-73
2022/05/02 05:59:48;;;;;;;14.53;10.13;;;;;;;;;;5024379;28;20254;-74
2022/05/02 06:02:19;;;;;;;10.77;9.20;;;;;;;;;;5023635;28;20280;-74
2022/05/02 06:04:50;;;;;;;10.53;8.47;;;;;;;;;;5032558;28;20203;-73
2022/05/02 06:07:22;;;;;;;13.03;8.50;;;;;;;;;;5035100;28;20228;-73
2022/05/02 06:09:50;;;;;;;8.87;8.07;;;;;;;;;;5030137;28;20223;-73
2022/05/02 06:12:21;;;;;;;9.40;8.50;;;;;;;;;;5033749;28;20261;-73
2022/05/02 06:20:24;;;;;;;11.57;9.30;;;;;;;;;;5034874;28;20214;-73
2022/05/02 06:22:57;;;;;;;13.10;9.50;;;;;;;;;;5034517;28;20575;-73
2022/05/02 06:25:25;;;;;;;13.20;9.97;;;;;;;;;;5034918;28;20701;-73
2022/05/02 06:27:54;;;;;;;10.50;9.37;;;;;;;;;;5039235;28;20277;-73
2022/05/02 06:30:25;;;;;;;10.37;9.37;;;;;;;;;;5038447;28;20300;-74
2022/05/02 06:32:56;;;;;;;12.40;8.47;;;;;;;;;;5033571;28;20579;-73
2022/05/02 06:35:26;;;;;;;12.70;8.80;;;;;;;;;;5034899;28;20204;-73
2022/05/02 06:37:59;;;;;;;10.60;8.27;;;;;;;;;;5034687;28;20745;-73
2022/05/02 06:40:30;;;;;;;8.20;7.40;;;;;;;;;;5033900;28;20211;-72
2022/05/02 06:43:05;;;;;;;9.20;6.63;;;;;;;;;;5034658;28;20250;-73
2022/05/02 06:45:39;;;;;;;8.47;6.50;;;;;;;;;;5034555;28;20210;-73
2022/05/02 06:48:13;;;;;;;7.67;5.70;;;;;;;;;;5033292;28;20640;-73
2022/05/02 06:50:44;;;;;;;6.77;6.10;;;;;;;;;;5034135;28;20265;-73
2022/05/02 06:53:19;;;;;;;7.60;6.77;;;;;;;;;;5022881;28;20615;-73
2022/05/02 06:55:53;;;;;;;7.67;6.83;;;;;;;;;;5034712;28;20207;-73
2022/05/02 06:58:26;;;;;;;9.83;6.97;;;;;;;;;;5034024;28;20757;-73
2022/05/02 07:00:59;;;;;;;7.27;6.57;;;;;;;;;;5035340;28;20203;-74
2022/05/02 07:03:38;;;;;;;8.00;6.50;;;;;;;;;;5033114;28;20291;-73
2022/05/02 07:06:10;;;;;;;8.63;6.50;;;;;;;;;;5029051;28;20215;-73
2022/05/02 07:08:44;;;;;;;7.10;6.40;;;;;;;;;;5033219;28;20227;-73
2022/05/02 07:11:15;;;;;;;7.50;6.77;;;;;;;;;;5034039;28;20225;-73
2022/05/02 07:13:50;;;;;;;7.97;6.37;;;;;;;;;;5033491;28;20253;-73
2022/05/02 07:16:23;;;;;;;7.00;6.07;;;;;;;;;;5034512;28;20249;-73
2022/05/02 07:19:01;;;;;;;7.57;6.30;;;;;;;;;;5033576;28;20224;-73
2022/05/02 07:21:39;;;;;;;5.93;5.37;;;;;;;;;;5033931;28;20200;-73
2022/05/02 07:24:17;;;;;;;6.50;5.90;;;;;;;;;;5033794;28;20262;-73
2022/05/02 07:26:50;;;;;;;9.67;6.17;;;;;;;;;;5034026;28;20192;-74
2022/05/02 07:29:19;;;;;;;8.00;6.07;;;;;;;;;;5033379;28;20599;-73
2022/05/02 07:31:48;;;;;;;6.57;5.80;;;;;;;;;;5033833;28;20270;-73
2022/05/02 07:34:17;;;;;;;6.40;5.80;;;;;;;;;;5031972;28;20631;-73
2022/05/02 07:36:52;;;;;;;7.60;6.00;;;;;;;;;;5033584;28;20203;-73
2022/05/02 07:39:23;;;;;;;7.80;5.90;;;;;;;;;;5033174;28;20593;-73
2022/05/02 07:41:52;;;;;;;6.20;5.57;;;;;;;;;;5033588;28;20654;-73
2022/05/02 07:44:24;;;;;;;8.80;6.00;;;;;;;;;;5033048;28;20208;-73
2022/05/02 07:46:54;;;;;;;7.40;5.87;;;;;;;;;;5033597;28;20281;-73
2022/05/02 07:49:24;;;;;;;8.20;6.23;;;;;;;;;;5032997;28;20254;-73
2022/05/02 07:51:53;;;;;;;7.83;6.53;;;;;;;;;;5033579;28;20558;-73
2022/05/02 07:54:26;;;;;;;7.77;7.03;;;;;;;;;;5032592;28;20648;-74
2022/05/02 07:57:02;;;;;;;7.13;6.37;;;;;;;;;;5033578;28;20302;-73
2022/05/02 07:59:31;;;;;;;7.43;6.03;;;;;;;;;;5032686;28;20206;-74
2022/05/02 08:02:00;;;;;;;8.07;6.47;;;;;;;;;;5033277;28;20212;-73
2022/05/02 08:04:29;;;;;;;7.63;6.60;;;;;;;;;;5032777;28;20212;-73
2022/05/02 08:07:05;;;;;;;10.23;6.60;;;;;;;;;;5033091;28;20215;-73
2022/05/02 08:10:06;;;;;;;6.70;6.10;;;;;;;;;;5032697;28;20215;-74
2022/05/02 08:12:39;;;;;;;7.83;6.30;;;;;;;;;;5033074;28;20207;-73
2022/05/02 08:15:09;;;;;;;8.70;6.43;;;;;;;;;;5028921;28;20208;-73
2022/05/02 08:17:56;;;;;;;7.20;6.60;;;;;;;;;;5033098;28;20228;-74
2022/05/02 08:20:28;;;;;;;7.20;6.40;;;;;;;;;;5033283;28;20258;-74
2022/05/02 08:28:45;;;;;;;7.57;6.77;;;;;;;;;;5024942;28;20228;-73
2022/05/02 08:31:18;;;;;;;9.70;6.70;;;;;;;;;;5032905;28;20232;-73
2022/05/02 08:33:53;;;;;;;10.17;6.60;;;;;;;;;;5032293;28;20212;-73
2022/05/02 08:36:28;;;;;;;10.60;7.27;;;;;;;;;;5033848;28;20195;-73
2022/05/02 08:38:59;;;;;;;8.33;6.87;;;;;;;;;;5032905;28;20227;-73
2022/05/02 08:41:49;;;;;;;8.57;6.87;;;;;;;;;;5033044;28;20647;-73
2022/05/02 08:44:30;;;;;;;7.90;7.10;;;;;;;;;;5032143;28;20536;-73
2022/05/02 08:47:23;;;;;;;7.00;6.30;;;;;;;;;;5032806;28;20556;-74
2022/05/02 08:50:07;;;;;;;8.50;6.73;;;;;;;;;;5013180;28;20540;-73
2022/05/02 08:52:53;;;;;;;7.07;6.30;;;;;;;;;;5016749;28;20220;-73
2022/05/02 08:55:40;;;;;;;7.73;6.40;;;;;;;;;;5013138;28;20247;-73
2022/05/02 08:58:26;;;;;;;7.45;6.35;;;;;;;;;;5022657;28;20277;-73
2022/05/02 09:01:05;;;;;;;7.93;6.63;;;;;;;;;;5013794;28;20203;-73
2022/05/02 09:04:07;;;;;;;9.18;6.70;;;;;;;;;;5024148;28;20578;-73
2022/05/02 09:07:06;;;;;;;6.72;6.05;;;;;;;;;;5032486;28;20346;-73
2022/05/02 09:09:48;;;;;;;7.72;6.60;;;;;;;;;;4971745;28;20206;-73
2022/05/02 09:12:35;;;;;;;7.25;6.28;;;;;;;;;;5024861;28;20231;-73
2022/05/02 09:15:12;;;;;;;7.68;6.10;;;;;;;;;;5019154;28;20216;-73
2022/05/02 09:18:13;;;;;;;7.40;6.10;;;;;;;;;;5032476;28;20230;-73
2022/05/02 09:20:55;;;;;;;7.40;6.65;;;;;;;;;;5032708;28;20207;-74
2022/05/02 09:23:38;;;;;;;7.63;6.78;;;;;;;;;;5032027;28;20207;-73
2022/05/02 09:26:27;;;;;;;6.75;6.05;;;;;;;;;;5033630;28;20208;-74
2022/05/02 09:29:06;;;;;;;8.48;6.57;;;;;;;;;;5036153;28;20231;-73
2022/05/02 09:31:41;;;;;;;8.65;6.25;;;;;;;;;;5035685;28;20228;-73
2022/05/02 09:34:18;;;;;;;6.10;5.28;;;;;;;;;;5035432;28;20238;-73
2022/05/02 09:36:55;;;;;;;7.53;5.85;;;;;;;;;;5035993;28;20203;-74
2022/05/02 09:39:25;;;;;;;6.05;5.45;;;;;;;;;;5034983;28;20207;-74
2022/05/02 09:42:03;;;;;;;6.07;5.35;;;;;;;;;;5035052;28;20199;-74
2022/05/02 09:50:37;;;;;;;8.93;6.78;;;;;;;;;;4962276;28;20638;-73
2022/05/02 09:53:17;;;;;;;6.50;5.80;;;;;;;;;;5033083;28;20629;-73
2022/05/02 09:58:54;;;;;;;11.18;6.13;;;;;;;;;;5032976;28;20227;-73
2022/05/02 10:01:24;;;;;;;6.38;5.60;;;;;;;;;;5035433;28;20196;-73
2022/05/02 10:04:08;;;;;;;6.82;6.13;;;;;;;;;;5035179;28;20203;-73
2022/05/02 10:06:43;;;;;;;7.85;5.30;;;;;;;;;;5035655;28;20184;-73
2022/05/02 10:09:18;;;;;;;6.63;5.95;;;;;;;;;;5034814;28;20203;-73
2022/05/02 10:11:54;;;;;;;9.75;6.00;;;;;;;;;;5035698;28;20211;-73
2022/05/02 10:14:36;;;;;;;7.85;5.85;;;;;;;;;;5034246;28;20211;-73
2022/05/02 10:17:07;;;;;;;6.90;5.40;;;;;;;;;;5035060;28;20223;-73
2022/05/02 10:19:51;;;;;;;6.03;5.43;;;;;;;;;;5034453;28;20585;-73
2022/05/02 10:22:30;;;;;;;7.57;5.40;;;;;;;;;;5034706;28;20207;-74
2022/05/02 10:25:02;;;;;;;7.57;5.32;;;;;;;;;;5014834;28;20192;-74
2022/05/02 10:27:41;;;;;;;6.15;5.40;;;;;;;;;;5016921;28;20311;-73
2022/05/02 10:30:12;;;;;;;6.57;5.57;;;;;;;;;;5031308;28;20659;-73
2022/05/02 10:32:44;;;;;;;6.78;5.57;;;;;;;;;;5034787;28;20254;-73
2022/05/02 10:35:14;;;;;;;5.95;5.38;;;;;;;;;;5031378;28;20227;-73
2022/05/02 10:37:44;;;;;;;6.63;5.50;;;;;;;;;;5034299;28;20441;-73
2022/05/02 10:40:13;;;;;;;7.78;5.82;;;;;;;;;;5031726;28;20211;-73
2022/05/02 10:42:47;;;;;;;7.82;5.35;;;;;;;;;;5034844;28;20203;-73
2022/05/02 10:45:16;;;;;;;6.72;5.03;;;;;;;;;;5034908;28;20184;-74
2022/05/02 10:47:46;;;;;;;6.90;5.13;;;;;;;;;;5034553;28;20231;-73
2022/05/02 10:50:21;;;;;;;5.95;5.45;;;;;;;;;;5034446;28;20207;-73
2022/05/02 10:52:55;;;;;;;8.57;5.72;;;;;;;;;;5034266;28;20223;-73
2022/05/02 10:55:26;;;;;;;7.18;5.20;;;;;;;;;;5034045;28;20258;-73
2022/05/02 10:57:56;;;;;;;6.90;5.57;;;;;;;;;;5033683;28;20223;-73
2022/05/02 11:00:24;;;;;;;8.18;5.55;;;;;;;;;;5034545;28;20204;-73
2022/05/02 11:02:54;;;;;;;5.93;5.25;;;;;;;;;;5033935;28;20203;-74
2022/05/02 11:05:28;;;;;;;6.32;5.43;;;;;;;;;;5033995;28;20334;-73
2022/05/02 11:07:59;;;;;;;6.68;5.10;;;;;;;;;;5033947;28;20227;-73
2022/05/02 11:10:29;;;;;;;6.40;5.78;;;;;;;;;;5033793;28;20258;-73
2022/05/02 11:13:04;;;;;;;6.50;5.90;;;;;;;;;;5032768;28;20219;-74
2022/05/02 11:15:36;;;;;;;6.03;5.43;;;;;;;;;;5033900;28;20268;-73
2022/05/02 11:18:07;;;;;;;6.07;5.47;;;;;;;;;;5033839;28;20235;-73
2022/05/02 11:20:43;;;;;;;5.88;5.28;;;;;;;;;;5034123;28;20261;-73
2022/05/02 11:23:25;;;;;;;6.50;5.15;;;;;;;;;;5033315;28;20599;-74
2022/05/02 11:25:59;;;;;;;6.80;5.70;;;;;;;;;;5027091;28;20215;-74
2022/05/02 11:28:34;;;;;;;6.38;5.78;;;;;;;;;;5033057;28;20227;-73
2022/05/02 11:31:10;;;;;;;5.97;5.38;;;;;;;;;;5033930;28;20211;-73
2022/05/02 11:33:40;;;;;;;6.07;5.47;;;;;;;;;;5033242;28;20231;-73
2022/05/02 11:36:11;;;;;;;6.50;5.18;;;;;;;;;;5033499;28;20662;-73
2022/05/02 11:38:43;;;;;;;6.57;5.35;;;;;;;;;;5032067;28;20630;-73
2022/05/02 11:41:12;;;;;;;7.07;5.80;;;;;;;;;;5033856;28;20192;-73
2022/05/02 11:43:41;;;;;;;6.63;5.57;;;;;;;;;;5033226;28;20269;-73
2022/05/02 11:46:18;;;;;;;6.00;5.50;;;;;;;;;;5033645;28;20269;-73
2022/05/02 11:48:53;;;;;;;6.30;5.68;;;;;;;;;;5032716;28;20223;-74
2022/05/02 11:51:29;;;;;;;9.02;5.93;;;;;;;;;;5033198;28;20204;-74
2022/05/02 11:54:04;;;;;;;8.13;5.43;;;;;;;;;;5032768;28;20231;-73
2022/05/02 11:56:37;;;;;;;7.32;5.60;;;;;;;;;;5032777;28;20288;-73
2022/05/02 11:59:06;;;;;;;5.95;5.28;;;;;;;;;;5033148;28;20330;-73
2022/05/02 12:01:37;;;;;;;9.20;5.93;;;;;;;;;;5033290;28;20208;-73
2022/05/02 12:04:06;;;;;;;7.55;5.68;;;;;;;;;;5030522;28;20206;-74
2022/05/02 12:06:38;;;;;;;6.50;5.55;;;;;;;;;;5032007;28;20693;-73
2022/05/02 12:09:19;;;;;;;7.63;5.63;;;;;;;;;;5030138;28;20207;-73
2022/05/02 12:11:58;;;;;;;6.18;5.57;;;;;;;;;;5028264;28;20800;-73
2022/05/02 12:14:26;;;;;;;6.20;5.60;;;;;;;;;;5031514;28;20230;-73
2022/05/02 12:17:09;;;;;;;7.00;5.80;;;;;;;;;;5026646;28;20216;-73
2022/05/02 12:19:39;;;;;;;6.85;5.40;;;;;;;;;;5029924;28;20266;-73
2022/05/02 12:22:10;;;;;;;7.53;5.53;;;;;;;;;;5032055;28;20705;-73
2022/05/02 12:24:40;;;;;;;7.55;6.50;;;;;;;;;;5030870;28;20196;-73
2022/05/02 12:27:09;;;;;;;6.70;5.97;;;;;;;;;;5032279;28;20250;-73
2022/05/02 12:29:37;;;;;;;6.22;5.63;;;;;;;;;;5029473;28;20219;-73
2022/05/02 12:32:07;;;;;;;6.60;5.93;;;;;;;;;;5024417;28;20204;-73
2022/05/02 12:34:37;;;;;;;6.85;5.80;;;;;;;;;;5030408;28;20712;-73
2022/05/02 12:37:07;;;;;;;7.10;5.82;;;;;;;;;;5030925;28;20223;-73
2022/05/02 12:39:36;;;;;;;5.85;5.28;;;;;;;;;;5031857;28;20200;-73
2022/05/02 12:42:15;;;;;;;5.78;5.28;;;;;;;;;;5030445;28;20209;-74
2022/05/02 12:44:44;;;;;;;5.93;5.43;;;;;;;;;;5028980;28;20206;-73
2022/05/02 12:47:17;;;;;;;7.10;5.95;;;;;;;;;;5032405;28;20220;-73
2022/05/02 12:49:55;;;;;;;5.93;5.38;;;;;;;;;;5029394;28;20207;-73
2022/05/02 12:52:28;;;;;;;7.57;5.55;;;;;;;;;;5031477;28;20262;-74
2022/05/02 13:01:07;;;;;;;6.40;5.55;;;;;;;;;;5024992;28;20196;-74
2022/05/02 13:03:38;;;;;;;7.65;5.40;;;;;;;;;;5026690;28;20200;-73
2022/05/02 13:06:08;;;;;;;7.47;5.90;;;;;;;;;;5033905;28;20250;-74
2022/05/02 13:08:38;;;;;;;6.55;5.55;;;;;;;;;;5039917;28;20310;-73
2022/05/02 13:11:08;;;;;;;5.80;5.15;;;;;;;;;;5036242;28;20684;-74
2022/05/02 13:13:42;;;;;;;5.90;5.30;;;;;;;;;;5034862;28;20215;-74
2022/05/02 13:16:15;;;;;;;6.05;5.45;;;;;;;;;;5034184;28;20211;-75
2022/05/02 13:18:48;;;;;;;7.45;5.43;;;;;;;;;;5033748;28;20753;-74
2022/05/02 13:21:18;;;;;;;6.60;5.90;;;;;;;;;;5032695;28;20228;-73
2022/05/02 13:23:47;;;;;;;7.10;5.53;;;;;;;;;;5035135;28;20222;-73
2022/05/02 13:26:34;;;;;;;10.18;5.60;;;;;;;;;;5031677;28;20208;-74
2022/05/02 13:29:08;;;;;;;6.30;5.70;;;;;;;;;;5030156;28;20250;-72
2022/05/02 13:31:41;;;;;;;6.38;5.57;;;;;;;;;;5032188;28;20214;-74
2022/05/02 13:34:19;;;;;;;7.93;5.60;;;;;;;;;;5032558;28;20246;-74
2022/05/02 13:36:49;;;;;;;5.90;5.28;;;;;;;;;;5034320;28;20203;-74
2022/05/02 13:39:22;;;;;;;6.72;6.00;;;;;;;;;;5033834;28;21600;-73
2022/05/02 13:41:54;;;;;;;6.15;5.32;;;;;;;;;;5032953;28;20204;-73
2022/05/02 13:44:29;;;;;;;7.03;5.25;;;;;;;;;;5037948;28;20199;-73
2022/05/02 13:47:00;;;;;;;7.03;5.80;;;;;;;;;;5036048;28;20215;-74
2022/05/02 13:49:32;;;;;;;7.05;5.40;;;;;;;;;;5033449;28;20195;-74
2022/05/02 13:52:04;;;;;;;9.73;6.10;;;;;;;;;;5038124;28;20294;-73
2022/05/02 13:54:37;;;;;;;7.95;5.65;;;;;;;;;;5032593;28;20215;-73
2022/05/02 13:57:19;;;;;;;9.32;6.10;;;;;;;;;;5033951;28;20227;-73
2022/05/02 13:59:58;;;;;;;7.07;6.07;;;;;;;;;;5031127;28;20565;-73
2022/05/02 14:02:47;;;;;;;6.00;5.47;;;;;;;;;;4681717;28;9999955;-74
2022/05/02 14:05:25;;;;;;;9.98;6.82;;;;;;;;;;5031314;28;20192;-73
2022/05/02 14:08:00;;;;;;;8.30;6.60;;;;;;;;;;5030008;28;20259;-73
2022/05/02 14:10:29;;;;;;;6.95;5.72;;;;;;;;;;5032041;28;20202;-73
2022/05/02 14:12:58;;;;;;;7.25;6.55;;;;;;;;;;5033337;28;20713;-74
2022/05/02 14:15:33;;;;;;;7.32;5.70;;;;;;;;;;5034199;28;20224;-74
2022/05/02 14:18:16;;;;;;;7.13;5.40;;;;;;;;;;5039808;28;20285;-73
2022/05/02 14:20:45;;;;;;;6.53;5.57;;;;;;;;;;5031264;28;20208;-73
2022/05/02 14:23:14;;;;;;;6.93;6.22;;;;;;;;;;5037020;28;20203;-73
2022/05/02 14:25:43;;;;;;;8.10;6.03;;;;;;;;;;5027803;28;20203;-73
2022/05/02 14:28:13;;;;;;;7.18;5.68;;;;;;;;;;5031043;28;20219;-74
2022/05/02 14:30:43;;;;;;;10.18;6.35;;;;;;;;;;5033064;28;20257;-74
2022/05/02 14:33:12;;;;;;;6.78;5.93;;;;;;;;;;5030468;28;20254;-74
2022/05/02 14:35:42;;;;;;;7.40;5.65;;;;;;;;;;5031068;28;20350;-74
2022/05/02 14:38:12;;;;;;;10.23;6.20;;;;;;;;;;5030611;28;20849;-73
2022/05/02 14:40:41;;;;;;;10.15;6.10;;;;;;;;;;5031599;28;20203;-73
2022/05/02 14:43:10;;;;;;;6.38;5.55;;;;;;;;;;5027694;28;20281;-74
2022/05/02 14:45:39;;;;;;;9.45;6.95;;;;;;;;;;5025273;28;20204;-72
2022/05/02 14:48:10;;;;;;;6.88;6.18;;;;;;;;;;5032461;28;20311;-73
2022/05/02 14:50:40;;;;;;;6.78;5.82;;;;;;;;;;5031179;28;20281;-74
2022/05/02 14:53:10;;;;;;;9.35;6.00;;;;;;;;;;5031416;28;20203;-74
2022/05/02 14:55:42;;;;;;;6.80;5.90;;;;;;;;;;5032597;28;20220;-73
2022/05/02 14:58:12;;;;;;;7.45;5.72;;;;;;;;;;5033166;28;20216;-74
2022/05/02 15:00:42;;;;;;;7.20;6.43;;;;;;;;;;5030350;28;20218;-73
2022/05/02 15:03:14;;;;;;;5.78;5.18;;;;;;;;;;5033226;28;20254;-73
2022/05/02 15:05:45;;;;;;;7.35;5.90;;;;;;;;;;5030394;28;20200;-74
2022/05/02 15:08:38;;;;;;;6.30;5.65;;;;;;;;;;5031443;28;20703;-73
2022/05/02 15:11:07;;;;;;;6.95;6.25;;;;;;;;;;5023607;28;20243;-73
2022/05/02 15:13:51;;;;;;;8.52;6.65;;;;;;;;;;5032347;28;20270;-73
2022/05/02 15:16:23;;;;;;;6.28;5.68;;;;;;;;;;5018058;28;20211;-74
2022/05/02 15:22:10;;;;;;;10.63;5.90;;;;;;;;;;5034222;28;20206;-74
2022/05/02 15:24:57;;;;;;;6.60;5.50;;;;;;;;;;5033889;28;20659;-73
2022/05/02 15:38:49;;;;;;;6.45;5.65;;;;;;;;;;5027155;28;20856;-73
2022/05/02 15:41:38;;;;;;;6.55;5.78;;;;;;;;;;5030610;28;20203;-74
2022/05/02 15:44:09;;;;;;;6.32;5.50;;;;;;;;;;5031131;28;20195;-74
2022/05/02 15:46:41;;;;;;;6.72;6.05;;;;;;;;;;5030150;28;20204;-73
2022/05/02 15:49:11;;;;;;;7.85;5.97;;;;;;;;;;5028252;28;20243;-72
2022/05/02 15:51:45;;;;;;;7.00;5.47;;;;;;;;;;5035140;28;20219;-74
2022/05/02 15:54:33;;;;;;;7.10;5.07;;;;;;;;;;5030324;28;20230;-73
2022/05/02 15:57:20;;;;;;;7.38;6.00;;;;;;;;;;5030340;28;20223;-74
2022/05/02 15:59:49;;;;;;;6.55;5.50;;;;;;;;;;5022215;28;20711;-73